Time;durP1;ratioP1;P1;durP2;ratioP2;P2;SDS_P1;SDS_P2;PMS_P1;PMS_P2;Temp;Humidity;BMP_temperature;BMP_pressure;BME280_temperature;BME280_humidity;BME280_pressure;Samples;Min_cycle;Max_cycle;Signal;HPM_P1;HPM_P2
2022/02/21 00:02:00;;;;;;;1.50;1.40;;;10.90;99.90;;;;;;5052077;28;20190;-49
2022/02/21 00:04:26;;;;;;;1.60;1.50;;;11.00;99.90;;;;;;5050624;28;20182;-54
2022/02/21 00:06:52;;;;;;;1.70;1.60;;;11.00;99.90;;;;;;5060824;28;20476;-55
2022/02/21 00:09:17;;;;;;;1.80;1.70;;;11.00;99.90;;;;;;5064035;28;20271;-50
2022/02/21 00:11:43;;;;;;;1.70;1.60;;;11.00;99.90;;;;;;5054574;28;20248;-53
2022/02/21 00:14:08;;;;;;;1.83;1.73;;;11.10;99.90;;;;;;5053860;28;20569;-54
2022/02/21 00:16:34;;;;;;;1.80;1.70;;;11.10;99.90;;;;;;5052757;28;20269;-55
2022/02/21 00:19:00;;;;;;;1.73;1.63;;;11.10;99.90;;;;;;5051168;28;20193;-52
2022/02/21 00:21:26;;;;;;;1.97;1.77;;;11.20;99.90;;;;;;5051738;28;20776;-55
2022/02/21 00:23:52;;;;;;;1.83;1.70;;;11.20;99.90;;;;;;5052118;28;20543;-53
2022/02/21 00:26:18;;;;;;;1.90;1.80;;;11.20;99.90;;;;;;5051749;28;20492;-53
2022/02/21 00:28:45;;;;;;;2.00;1.80;;;11.30;99.90;;;;;;5050938;28;20187;-54
2022/02/21 00:31:11;;;;;;;1.90;1.80;;;11.30;99.90;;;;;;5067788;28;20474;-55
2022/02/21 00:33:37;;;;;;;1.80;1.70;;;11.30;99.90;;;;;;5050841;28;20504;-53
2022/02/21 00:36:03;;;;;;;2.10;1.93;;;11.30;99.90;;;;;;5051938;28;20527;-54
2022/02/21 00:38:29;;;;;;;1.90;1.80;;;11.30;99.90;;;;;;5051830;28;20178;-56
2022/02/21 00:40:54;;;;;;;2.03;1.83;;;11.30;99.90;;;;;;5054032;28;20464;-52
2022/02/21 00:43:20;;;;;;;1.87;1.70;;;11.40;99.90;;;;;;5057814;28;20182;-52
2022/02/21 00:45:45;;;;;;;3.93;2.47;;;11.40;99.90;;;;;;5049478;28;20298;-54
2022/02/21 00:48:11;;;;;;;2.13;2.03;;;11.40;99.90;;;;;;5053914;28;20177;-53
2022/02/21 00:50:37;;;;;;;2.07;1.97;;;11.50;99.90;;;;;;5049708;28;20187;-51
2022/02/21 00:53:02;;;;;;;2.00;1.90;;;11.50;99.90;;;;;;5057111;28;20293;-51
2022/02/21 00:55:30;;;;;;;2.70;2.10;;;11.60;99.90;;;;;;5045936;28;20687;-56
2022/02/21 00:57:56;;;;;;;2.27;2.00;;;11.50;99.90;;;;;;5050862;28;20212;-53
2022/02/21 01:00:21;;;;;;;2.37;2.20;;;11.60;99.90;;;;;;5050628;28;20432;-56
2022/02/21 01:02:47;;;;;;;2.63;2.43;;;11.50;99.90;;;;;;5049999;28;20444;-54
2022/02/21 01:05:12;;;;;;;2.10;2.00;;;11.60;99.90;;;;;;5050548;28;20573;-54
2022/02/21 01:07:38;;;;;;;3.83;2.10;;;11.60;99.90;;;;;;5049545;28;20224;-56
2022/02/21 01:10:05;;;;;;;2.50;2.30;;;11.60;99.90;;;;;;5049739;28;20348;-52
2022/02/21 01:12:31;;;;;;;2.83;2.20;;;11.60;99.90;;;;;;5050779;28;20182;-53
2022/02/21 01:14:57;;;;;;;2.13;2.03;;;11.60;99.90;;;;;;5049196;28;21065;-52
2022/02/21 01:17:23;;;;;;;2.50;2.30;;;11.70;99.90;;;;;;5050391;28;20182;-50
2022/02/21 01:19:50;;;;;;;2.60;2.40;;;11.60;99.90;;;;;;5050386;28;20213;-53
2022/02/21 01:22:16;;;;;;;2.40;2.30;;;11.70;99.90;;;;;;5050424;28;20425;-51
2022/02/21 01:24:42;;;;;;;2.73;2.50;;;11.70;99.90;;;;;;5049691;28;20432;-54
2022/02/21 01:27:08;;;;;;;3.53;2.30;;;11.70;99.90;;;;;;5053915;28;20803;-54
2022/02/21 01:29:34;;;;;;;2.67;2.47;;;11.70;99.90;;;;;;5050075;28;20181;-54
2022/02/21 01:32:00;;;;;;;2.47;2.27;;;11.70;99.90;;;;;;5054369;28;20181;-53
2022/02/21 01:34:25;;;;;;;2.03;1.93;;;11.70;99.70;;;;;;5053283;28;20429;-52
2022/02/21 01:36:52;;;;;;;2.30;2.13;;;11.70;99.50;;;;;;5063324;28;20825;-50
2022/02/21 01:39:19;;;;;;;2.20;2.10;;;11.80;99.20;;;;;;5061848;28;20174;-47
2022/02/21 01:41:44;;;;;;;2.90;2.10;;;11.80;99.40;;;;;;5049774;28;20525;-55
2022/02/21 01:44:11;;;;;;;2.20;2.10;;;11.80;98.80;;;;;;5050014;28;20512;-51
2022/02/21 01:46:38;;;;;;;2.10;2.00;;;11.90;98.70;;;;;;5048704;28;20571;-53
2022/02/21 01:49:05;;;;;;;2.10;2.00;;;11.80;98.60;;;;;;5048606;28;20827;-55
2022/02/21 01:51:32;;;;;;;2.30;2.20;;;11.80;98.70;;;;;;5049227;28;20486;-54
2022/02/21 01:53:58;;;;;;;2.20;2.10;;;11.80;99.00;;;;;;5049694;28;20959;-53
2022/02/21 01:56:24;;;;;;;2.20;2.10;;;11.80;98.80;;;;;;5048214;28;20427;-53
2022/02/21 01:58:50;;;;;;;2.30;2.10;;;11.80;98.40;;;;;;5049881;28;20429;-56
2022/02/21 02:01:16;;;;;;;2.30;2.20;;;11.80;98.10;;;;;;5048941;28;20428;-55
2022/02/21 02:03:41;;;;;;;2.10;2.00;;;11.90;97.90;;;;;;5049696;28;20530;-53
2022/02/21 02:06:09;;;;;;;2.40;2.10;;;11.80;97.90;;;;;;5049661;28;20206;-51
2022/02/21 02:08:34;;;;;;;2.13;2.03;;;11.90;97.50;;;;;;5050034;28;20236;-52
2022/02/21 02:11:00;;;;;;;2.30;2.10;;;11.90;97.30;;;;;;5031402;28;20410;-53
2022/02/21 02:13:27;;;;;;;2.20;2.10;;;11.90;97.20;;;;;;5037302;28;20664;-55
2022/02/21 02:15:54;;;;;;;2.10;2.00;;;11.90;97.00;;;;;;5048256;28;20422;-55
2022/02/21 02:18:21;;;;;;;2.10;2.00;;;12.00;97.00;;;;;;5048758;28;20429;-49
2022/02/21 02:20:46;;;;;;;1.90;1.80;;;12.00;96.70;;;;;;5049964;28;20425;-53
2022/02/21 02:23:12;;;;;;;2.37;2.20;;;12.00;96.60;;;;;;5049271;28;21025;-56
2022/02/21 02:25:39;;;;;;;2.10;2.00;;;12.00;96.30;;;;;;5053658;28;20550;-54
2022/02/21 02:28:05;;;;;;;2.10;2.00;;;12.00;96.50;;;;;;5051120;28;20228;-55
2022/02/21 02:30:31;;;;;;;2.10;2.00;;;12.00;96.30;;;;;;5048669;28;20433;-54
2022/02/21 02:32:56;;;;;;;2.10;2.00;;;12.00;96.30;;;;;;5049730;28;20505;-53
2022/02/21 02:35:22;;;;;;;2.00;1.90;;;12.00;96.10;;;;;;5062122;28;20185;-56
2022/02/21 02:37:49;;;;;;;2.00;1.90;;;11.90;96.40;;;;;;5049043;28;20191;-55
2022/02/21 02:40:15;;;;;;;2.20;2.10;;;11.90;96.40;;;;;;5053147;28;20439;-56
2022/02/21 02:42:41;;;;;;;2.23;2.13;;;12.00;96.20;;;;;;5048357;28;20953;-54
2022/02/21 02:45:07;;;;;;;1.90;1.80;;;12.00;96.10;;;;;;5048086;28;20456;-53
2022/02/21 02:47:33;;;;;;;2.10;2.00;;;11.90;96.30;;;;;;5047095;28;20417;-53
2022/02/21 02:49:59;;;;;;;1.80;1.70;;;12.00;96.50;;;;;;5049364;28;20425;-56
2022/02/21 02:52:24;;;;;;;2.27;2.10;;;12.00;96.10;;;;;;5049471;28;20464;-52
2022/02/21 02:54:50;;;;;;;1.90;1.80;;;11.90;96.10;;;;;;5048255;28;20563;-53
2022/02/21 02:57:16;;;;;;;1.90;1.80;;;12.00;96.30;;;;;;5048437;28;20190;-55
2022/02/21 02:59:41;;;;;;;2.30;2.20;;;11.90;96.20;;;;;;5049588;28;20197;-56
2022/02/21 03:02:07;;;;;;;2.00;1.90;;;11.90;96.20;;;;;;5048009;28;20197;-57
2022/02/21 03:04:32;;;;;;;2.10;2.00;;;11.90;96.30;;;;;;5049664;28;20186;-56
2022/02/21 03:07:00;;;;;;;1.90;1.80;;;12.00;96.40;;;;;;5048715;28;20993;-50
2022/02/21 03:09:26;;;;;;;1.90;1.80;;;11.90;96.50;;;;;;5049036;28;20181;-56
2022/02/21 03:11:52;;;;;;;2.17;2.07;;;12.00;96.30;;;;;;5049559;28;20416;-56
2022/02/21 03:14:18;;;;;;;2.10;2.00;;;11.90;96.40;;;;;;5048632;28;20443;-59
2022/02/21 03:16:44;;;;;;;2.37;2.23;;;11.90;96.50;;;;;;5052171;28;20186;-54
2022/02/21 03:19:09;;;;;;;2.17;2.07;;;11.90;96.50;;;;;;5052750;28;20558;-56
2022/02/21 03:21:35;;;;;;;2.20;2.10;;;11.90;96.40;;;;;;5050649;28;20182;-54
2022/02/21 03:24:00;;;;;;;1.90;1.80;;;11.90;96.70;;;;;;5052714;28;20233;-55
2022/02/21 03:26:26;;;;;;;2.10;2.00;;;11.90;96.70;;;;;;5052060;28;20209;-52
2022/02/21 03:28:52;;;;;;;2.10;2.00;;;11.90;96.60;;;;;;5052844;28;20250;-53
2022/02/21 03:31:17;;;;;;;1.97;1.87;;;12.00;96.50;;;;;;5050270;28;20201;-51
2022/02/21 03:33:43;;;;;;;2.10;2.00;;;11.90;96.40;;;;;;5052811;28;20239;-54
2022/02/21 03:36:08;;;;;;;1.90;1.80;;;11.90;96.70;;;;;;5052834;28;20150;-55
2022/02/21 03:38:34;;;;;;;2.00;1.90;;;11.90;96.50;;;;;;5049053;28;20286;-52
2022/02/21 03:41:00;;;;;;;2.60;2.27;;;11.90;96.50;;;;;;5047681;28;20193;-54
2022/02/21 03:43:25;;;;;;;2.10;2.00;;;11.90;97.00;;;;;;5047412;28;20529;-55
2022/02/21 03:45:51;;;;;;;1.90;1.80;;;11.90;96.60;;;;;;5052630;28;20395;-55
2022/02/21 03:48:17;;;;;;;1.83;1.73;;;12.00;96.60;;;;;;5052398;28;20178;-55
2022/02/21 03:50:43;;;;;;;1.83;1.73;;;12.00;96.70;;;;;;5050985;28;20166;-51
2022/02/21 03:53:09;;;;;;;1.90;1.80;;;12.00;96.70;;;;;;5052240;28;20538;-54
2022/02/21 03:55:35;;;;;;;2.10;2.00;;;12.00;96.80;;;;;;5045664;28;20429;-52
2022/02/21 03:58:00;;;;;;;1.60;1.53;;;12.00;97.10;;;;;;5051675;28;20628;-51
2022/02/21 04:00:26;;;;;;;2.30;2.20;;;12.00;98.60;;;;;;5052288;28;20170;-56
2022/02/21 04:02:52;;;;;;;2.40;2.30;;;10.50;99.90;;;;;;5051610;28;20190;-52
2022/02/21 04:05:18;;;;;;;2.10;2.00;;;9.20;99.90;;;;;;5052163;28;20194;-55
2022/02/21 04:07:44;;;;;;;1.73;1.40;;;8.30;99.90;;;;;;5051065;28;20490;-57
2022/02/21 04:10:12;;;;;;;1.73;1.30;;;7.80;99.90;;;;;;5051997;28;20178;-58
2022/02/21 04:12:38;;;;;;;1.37;1.13;;;7.50;99.90;;;;;;5051203;28;20845;-53
2022/02/21 04:15:04;;;;;;;2.80;1.30;;;7.30;99.90;;;;;;5051411;28;20436;-58
2022/02/21 04:17:40;;;;;;;3.25;1.25;;;7.00;99.90;;;;;;5051844;28;20425;-56
2022/02/21 04:20:06;;;;;;;1.95;1.00;;;6.80;99.90;;;;;;5050775;28;20193;-58
2022/02/21 04:22:32;;;;;;;1.10;1.00;;;6.80;99.90;;;;;;5049513;28;20182;-54
2022/02/21 04:24:57;;;;;;;1.90;1.10;;;6.80;99.90;;;;;;5050533;28;20198;-54
2022/02/21 04:27:23;;;;;;;1.27;1.07;;;6.70;99.90;;;;;;5051552;28;20243;-54
2022/02/21 04:29:48;;;;;;;1.30;0.73;;;6.80;99.90;;;;;;5050310;28;20260;-55
2022/02/21 04:32:14;;;;;;;0.90;0.90;;;6.80;99.90;;;;;;5049749;28;20194;-56
2022/02/21 04:34:40;;;;;;;1.50;1.20;;;6.80;99.90;;;;;;5050988;28;20257;-55
2022/02/21 04:37:05;;;;;;;1.23;1.00;;;6.90;99.90;;;;;;5051671;28;20190;-52
2022/02/21 04:39:31;;;;;;;1.10;1.00;;;7.00;99.90;;;;;;5048722;28;20192;-54
2022/02/21 04:41:56;;;;;;;1.07;0.90;;;7.10;99.90;;;;;;5051380;28;20340;-52
2022/02/21 04:44:22;;;;;;;2.23;1.17;;;7.20;99.90;;;;;;5053074;28;20202;-54
2022/02/21 04:46:48;;;;;;;1.47;1.00;;;7.30;99.90;;;;;;5050054;28;20218;-50
2022/02/21 04:49:14;;;;;;;3.45;1.10;;;7.40;99.90;;;;;;5059374;28;20275;-52
2022/02/21 04:51:40;;;;;;;1.37;1.10;;;7.40;99.90;;;;;;5061607;28;20269;-54
2022/02/21 04:54:06;;;;;;;1.10;1.10;;;7.40;99.90;;;;;;5050334;28;20576;-52
2022/02/21 04:56:31;;;;;;;1.10;1.10;;;7.50;99.90;;;;;;5049649;28;20194;-53
2022/02/21 04:58:57;;;;;;;1.33;1.27;;;7.50;99.90;;;;;;5050725;28;20228;-58
2022/02/21 05:01:22;;;;;;;1.10;1.00;;;7.50;99.90;;;;;;5050230;28;20663;-54
2022/02/21 05:03:48;;;;;;;1.47;1.00;;;7.50;99.90;;;;;;5051106;28;20178;-54
2022/02/21 05:06:14;;;;;;;1.20;1.10;;;7.40;99.90;;;;;;5044340;28;20202;-54
2022/02/21 05:08:39;;;;;;;1.35;1.25;;;7.40;99.90;;;;;;5045651;28;20178;-55
2022/02/21 05:11:06;;;;;;;1.27;1.17;;;7.20;99.90;;;;;;5049891;28;20244;-53
2022/02/21 05:13:31;;;;;;;1.40;1.30;;;7.20;99.90;;;;;;5050669;28;20230;-55
2022/02/21 05:15:57;;;;;;;1.10;1.00;;;7.10;99.90;;;;;;5049877;28;20239;-51
2022/02/21 05:18:23;;;;;;;1.20;1.10;;;7.10;99.90;;;;;;5050825;28;20666;-54
2022/02/21 05:20:48;;;;;;;1.17;1.17;;;7.00;99.90;;;;;;5050167;28;20265;-51
2022/02/21 05:23:14;;;;;;;2.27;1.10;;;7.00;99.90;;;;;;5046472;28;20596;-52
2022/02/21 05:25:39;;;;;;;1.40;1.30;;;7.10;99.90;;;;;;5055605;28;20202;-49
2022/02/21 05:28:07;;;;;;;1.90;1.10;;;7.10;99.90;;;;;;5060957;28;20205;-54
2022/02/21 05:30:32;;;;;;;1.40;1.17;;;7.10;99.90;;;;;;5042093;28;20182;-54
2022/02/21 05:32:58;;;;;;;2.70;1.10;;;7.20;99.90;;;;;;5042390;28;20193;-54
2022/02/21 05:35:23;;;;;;;1.60;1.27;;;7.10;99.90;;;;;;5042423;28;20198;-50
2022/02/21 05:37:49;;;;;;;1.13;1.07;;;7.10;99.90;;;;;;5051788;28;20211;-56
2022/02/21 05:40:15;;;;;;;1.30;1.20;;;7.20;99.90;;;;;;5050748;28;20192;-54
2022/02/21 05:42:40;;;;;;;1.20;1.10;;;7.20;99.90;;;;;;5048389;28;20584;-52
2022/02/21 05:45:06;;;;;;;1.00;1.00;;;7.10;99.90;;;;;;5051570;28;20186;-52
2022/02/21 05:47:32;;;;;;;1.80;1.40;;;7.10;99.90;;;;;;5068072;28;20232;-54
2022/02/21 05:49:57;;;;;;;1.20;1.10;;;7.00;99.90;;;;;;5061599;28;20431;-54
2022/02/21 05:52:23;;;;;;;1.40;1.30;;;7.00;99.90;;;;;;5050047;28;20277;-55
2022/02/21 05:54:52;;;;;;;1.00;1.00;;;6.90;99.90;;;;;;5063450;28;20667;-53
2022/02/21 05:57:18;;;;;;;1.10;1.00;;;6.90;99.90;;;;;;5051302;28;20186;-49
2022/02/21 05:59:43;;;;;;;1.30;1.20;;;6.90;99.90;;;;;;5048928;28;20228;-53
2022/02/21 06:02:09;;;;;;;2.10;1.37;;;6.80;99.90;;;;;;5048740;28;20190;-52
2022/02/21 06:04:34;;;;;;;2.77;1.60;;;6.80;99.90;;;;;;5060067;28;20212;-56
2022/02/21 06:07:01;;;;;;;1.30;1.20;;;6.70;99.90;;;;;;5062378;28;20209;-54
2022/02/21 06:09:26;;;;;;;1.08;1.08;;;6.70;99.90;;;;;;5060816;28;20182;-52
2022/02/21 06:11:52;;;;;;;1.40;1.20;;;6.80;99.90;;;;;;5049316;28;20196;-53
2022/02/21 06:14:17;;;;;;;1.57;1.30;;;6.80;99.90;;;;;;5050284;28;20293;-54
2022/02/21 06:16:43;;;;;;;1.23;1.10;;;6.80;99.90;;;;;;5057948;28;20182;-55
2022/02/21 06:19:09;;;;;;;1.40;1.20;;;6.90;99.90;;;;;;5052694;28;20269;-53
2022/02/21 06:21:34;;;;;;;1.20;1.10;;;6.80;99.90;;;;;;5062454;28;20663;-54
2022/02/21 06:24:00;;;;;;;1.90;1.20;;;6.90;99.90;;;;;;5049966;28;20182;-54
2022/02/21 06:26:25;;;;;;;1.90;1.40;;;6.90;99.90;;;;;;5052064;28;20218;-55
2022/02/21 06:28:51;;;;;;;1.80;1.70;;;6.90;99.90;;;;;;5049896;28;20607;-57
2022/02/21 06:31:16;;;;;;;3.20;1.27;;;6.90;99.90;;;;;;5062973;28;20197;-52
2022/02/21 06:33:42;;;;;;;1.40;1.30;;;7.00;99.90;;;;;;5049814;28;20172;-54
2022/02/21 06:36:07;;;;;;;1.50;1.40;;;7.10;99.90;;;;;;5049978;28;20605;-53
2022/02/21 06:38:33;;;;;;;2.10;1.50;;;7.10;99.90;;;;;;5051305;28;20186;-54
2022/02/21 06:40:59;;;;;;;2.00;1.33;;;7.00;99.90;;;;;;5047082;28;20173;-54
2022/02/21 06:43:25;;;;;;;1.63;1.53;;;7.00;99.90;;;;;;5041621;28;20482;-54
2022/02/21 06:45:51;;;;;;;2.17;1.70;;;7.00;99.90;;;;;;5067051;28;20479;-54
2022/02/21 06:48:16;;;;;;;1.60;1.47;;;7.00;99.90;;;;;;5064697;28;20181;-54
2022/02/21 06:50:42;;;;;;;1.80;1.70;;;7.00;99.90;;;;;;5062301;28;20322;-56
2022/02/21 06:53:07;;;;;;;1.50;1.40;;;7.00;99.90;;;;;;5062046;28;20825;-51
2022/02/21 06:55:33;;;;;;;4.43;1.80;;;7.10;99.90;;;;;;5071437;28;20231;-55
2022/02/21 06:57:59;;;;;;;1.70;1.60;;;7.00;99.90;;;;;;5068934;28;20186;-54
2022/02/21 07:00:25;;;;;;;1.50;1.40;;;7.00;99.90;;;;;;5051490;28;20456;-52
2022/02/21 07:02:51;;;;;;;1.70;1.57;;;7.00;99.90;;;;;;5051983;28;20182;-54
2022/02/21 07:05:17;;;;;;;3.00;1.50;;;7.00;99.90;;;;;;5052705;28;20190;-52
2022/02/21 07:07:43;;;;;;;1.70;1.60;;;7.00;99.90;;;;;;5064440;28;20181;-54
2022/02/21 07:10:09;;;;;;;1.80;1.70;;;7.00;99.90;;;;;;5059522;28;20184;-56
2022/02/21 07:12:35;;;;;;;1.80;1.70;;;7.10;99.90;;;;;;5063709;28;20171;-56
2022/02/21 07:15:00;;;;;;;1.85;1.60;;;7.10;99.90;;;;;;5052685;28;20622;-51
2022/02/21 07:17:26;;;;;;;1.90;1.80;;;7.10;99.90;;;;;;5053434;28;20170;-49
2022/02/21 07:19:54;;;;;;;1.90;1.80;;;7.10;99.90;;;;;;5053003;28;20181;-51
2022/02/21 07:22:19;;;;;;;1.75;1.60;;;7.00;99.90;;;;;;5052507;28;20198;-57
2022/02/21 07:24:45;;;;;;;2.30;2.10;;;7.10;99.90;;;;;;5052173;28;20166;-53
2022/02/21 07:27:10;;;;;;;2.30;2.10;;;7.10;99.90;;;;;;5052892;28;20202;-54
2022/02/21 07:29:36;;;;;;;2.10;1.90;;;7.20;99.90;;;;;;5050235;28;20235;-55
2022/02/21 07:32:04;;;;;;;2.17;2.07;;;7.30;99.90;;;;;;5050451;28;20228;-54
2022/02/21 07:34:29;;;;;;;1.70;1.60;;;7.30;99.90;;;;;;5051161;28;20282;-56
2022/02/21 07:36:55;;;;;;;3.63;1.70;;;6.80;99.90;;;;;;5056500;28;20567;-55
2022/02/21 07:39:20;;;;;;;1.60;1.50;;;6.40;99.90;;;;;;5042094;28;20311;-54
2022/02/21 07:41:46;;;;;;;1.27;1.17;;;6.00;99.90;;;;;;5059194;28;20216;-59
2022/02/21 07:44:11;;;;;;;2.40;1.27;;;5.70;99.90;;;;;;5053589;28;20182;-56
2022/02/21 07:46:37;;;;;;;2.20;1.30;;;5.30;99.90;;;;;;5052634;28;20253;-54
2022/02/21 07:49:03;;;;;;;1.40;1.30;;;5.00;99.90;;;;;;5047964;28;20673;-53
2022/02/21 07:51:29;;;;;;;1.30;1.20;;;4.70;99.90;;;;;;5058425;28;20185;-50
2022/02/21 07:53:55;;;;;;;1.57;1.20;;;4.40;99.90;;;;;;5059478;28;20291;-60
2022/02/21 07:56:21;;;;;;;1.35;1.20;;;4.30;99.90;;;;;;5070122;28;20276;-56
2022/02/21 07:58:46;;;;;;;2.20;1.10;;;4.10;99.90;;;;;;5051160;28;20590;-60
2022/02/21 08:01:12;;;;;;;2.70;1.10;;;4.10;99.90;;;;;;5049332;28;20220;-58
2022/02/21 08:03:38;;;;;;;2.63;1.50;;;4.10;99.90;;;;;;5050184;28;20182;-57
2022/02/21 08:06:07;;;;;;;1.80;1.40;;;4.00;99.90;;;;;;5055455;28;20649;-58
2022/02/21 08:08:33;;;;;;;1.70;1.40;;;4.10;99.90;;;;;;5050363;28;20175;-59
2022/02/21 08:10:58;;;;;;;2.05;1.50;;;4.10;99.90;;;;;;5068905;28;20638;-57
2022/02/21 08:13:24;;;;;;;1.70;1.17;;;4.10;99.90;;;;;;5053433;28;20182;-58
2022/02/21 08:15:50;;;;;;;2.30;1.73;;;4.10;99.90;;;;;;5049793;28;20269;-59
2022/02/21 08:18:15;;;;;;;2.30;1.50;;;4.20;99.90;;;;;;5056594;28;20186;-59
2022/02/21 08:20:41;;;;;;;3.63;1.70;;;4.50;99.90;;;;;;5069723;28;20302;-59
2022/02/21 08:23:06;;;;;;;4.37;1.70;;;5.00;99.90;;;;;;5064102;28;20211;-58
2022/02/21 08:25:32;;;;;;;3.00;1.40;;;5.60;99.90;;;;;;5070595;28;20217;-56
2022/02/21 08:27:57;;;;;;;1.97;1.80;;;5.90;99.90;;;;;;5049747;28;20213;-55
2022/02/21 08:30:24;;;;;;;3.73;1.97;;;6.20;99.90;;;;;;5054964;28;20220;-59
2022/02/21 08:32:50;;;;;;;3.65;1.90;;;6.60;99.90;;;;;;5058615;28;20288;-56
2022/02/21 08:35:16;;;;;;;7.15;2.42;;;7.10;99.90;;;;;;5067061;28;20268;-58
2022/02/21 08:37:42;;;;;;;2.50;2.30;;;7.60;99.90;;;;;;5060793;28;20261;-58
2022/02/21 08:40:13;;;;;;;2.77;2.50;;;7.90;99.90;;;;;;5066159;28;20178;-59
2022/02/21 08:42:39;;;;;;;2.75;2.55;;;7.80;99.20;;;;;;5070849;28;20416;-56
2022/02/21 08:45:06;;;;;;;4.63;2.27;;;7.90;98.70;;;;;;5070612;28;20196;-57
2022/02/21 08:47:31;;;;;;;3.17;2.70;;;8.20;98.30;;;;;;5060033;28;20190;-56
2022/02/21 08:49:57;;;;;;;2.50;2.30;;;8.50;96.70;;;;;;5051028;28;20489;-58
2022/02/21 08:52:23;;;;;;;3.97;2.90;;;8.40;97.50;;;;;;5062946;28;20221;-56
2022/02/21 08:54:48;;;;;;;3.03;2.73;;;8.20;97.50;;;;;;5063668;28;20182;-57
2022/02/21 08:57:15;;;;;;;2.97;2.40;;;7.80;97.30;;;;;;5063378;28;20182;-58
2022/02/21 08:59:42;;;;;;;2.25;2.05;;;7.60;97.90;;;;;;5053115;28;20185;-56
2022/02/21 09:02:08;;;;;;;2.63;2.40;;;7.40;99.20;;;;;;5052714;28;20249;-57
2022/02/21 09:04:34;;;;;;;2.50;2.30;;;7.40;99.90;;;;;;5049961;28;20163;-58
2022/02/21 09:06:59;;;;;;;3.00;2.43;;;7.30;99.90;;;;;;5050093;28;21000;-54
2022/02/21 09:09:25;;;;;;;2.70;2.50;;;7.20;99.90;;;;;;5050327;28;20233;-56
2022/02/21 09:11:51;;;;;;;2.53;2.33;;;7.30;99.90;;;;;;5050086;28;20714;-58
2022/02/21 09:14:17;;;;;;;3.30;2.40;;;7.20;99.90;;;;;;5050717;28;20245;-57
2022/02/21 09:16:43;;;;;;;2.53;2.33;;;7.30;99.90;;;;;;5034029;28;21007;-55
2022/02/21 09:19:09;;;;;;;3.20;2.17;;;7.70;99.90;;;;;;5030520;28;20186;-55
2022/02/21 09:21:34;;;;;;;2.60;2.40;;;8.70;99.50;;;;;;5030019;28;20187;-55
2022/02/21 09:24:00;;;;;;;2.00;1.90;;;9.50;96.40;;;;;;5030583;28;20187;-57
2022/02/21 09:26:27;;;;;;;2.90;2.40;;;10.00;93.30;;;;;;5028860;28;20199;-54
2022/02/21 09:28:55;;;;;;;2.53;2.33;;;9.80;92.90;;;;;;5038768;28;20256;-54
2022/02/21 09:31:21;;;;;;;3.63;2.40;;;9.80;91.40;;;;;;5049290;28;20433;-55
2022/02/21 09:33:46;;;;;;;2.60;2.37;;;9.90;90.90;;;;;;5049935;28;20474;-51
2022/02/21 09:36:12;;;;;;;2.77;2.67;;;10.20;86.10;;;;;;5049039;28;20186;-53
2022/02/21 09:38:38;;;;;;;3.27;2.83;;;10.50;85.90;;;;;;5049447;28;20546;-55
2022/02/21 09:41:05;;;;;;;2.90;2.80;;;11.00;81.10;;;;;;5049234;28;20508;-53
2022/02/21 09:43:31;;;;;;;2.90;2.70;;;11.30;75.90;;;;;;5047965;28;20684;-56
2022/02/21 09:46:07;;;;;;;2.97;2.70;;;11.30;73.70;;;;;;5049041;28;21135;-58
2022/02/21 09:48:39;;;;;;;3.27;3.07;;;10.80;68.60;;;;;;5052455;28;20420;-56
2022/02/21 09:51:06;;;;;;;3.60;3.20;;;9.60;67.70;;;;;;5048957;28;20489;-58
2022/02/21 09:53:37;;;;;;;3.10;2.90;;;8.90;72.90;;;;;;5050289;28;20472;-56
2022/02/21 09:56:04;;;;;;;3.73;2.90;;;9.10;72.40;;;;;;5049270;28;20421;-55
2022/02/21 09:58:31;;;;;;;2.53;2.43;;;9.00;74.70;;;;;;5048594;28;20813;-58
2022/02/21 10:00:57;;;;;;;3.27;3.07;;;8.60;73.20;;;;;;5049166;28;20429;-57
2022/02/21 10:03:39;;;;;;;3.30;3.10;;;8.30;76.40;;;;;;5044078;28;20422;-56
2022/02/21 10:06:25;;;;;;;3.57;3.30;;;8.50;77.80;;;;;;5040127;28;20585;-56
2022/02/21 10:08:53;;;;;;;3.00;2.80;;;8.40;74.80;;;;;;5049097;28;20970;-55
2022/02/21 10:11:32;;;;;;;4.33;3.43;;;8.20;75.70;;;;;;5049106;28;20423;-58
2022/02/21 10:14:00;;;;;;;3.10;2.90;;;8.10;78.40;;;;;;5029743;28;20844;-50
2022/02/21 10:16:42;;;;;;;3.03;2.83;;;8.20;79.70;;;;;;5041937;28;20475;-59
2022/02/21 10:19:13;;;;;;;3.03;2.83;;;8.40;75.80;;;;;;5048985;28;20939;-56
2022/02/21 10:22:01;;;;;;;2.90;2.70;;;8.50;73.20;;;;;;5054890;28;20510;-57
2022/02/21 10:24:44;;;;;;;3.23;2.70;;;8.90;73.50;;;;;;5075583;28;21031;-57
2022/02/21 10:27:12;;;;;;;2.80;2.70;;;9.20;70.10;;;;;;5053185;28;20472;-56
2022/02/21 10:29:55;;;;;;;2.90;2.70;;;9.20;69.90;;;;;;5055433;28;20523;-57
2022/02/21 10:32:29;;;;;;;3.50;3.30;;;8.80;70.30;;;;;;5054388;28;20428;-61
2022/02/21 10:34:56;;;;;;;3.20;3.00;;;8.20;71.60;;;;;;5054490;28;20416;-55
2022/02/21 10:37:26;;;;;;;3.50;3.30;;;7.80;73.50;;;;;;5054079;28;20409;-56
2022/02/21 10:40:10;;;;;;;2.63;2.53;;;7.80;76.50;;;;;;5053729;28;20521;-55
2022/02/21 10:42:36;;;;;;;2.77;2.63;;;8.50;76.10;;;;;;5054576;28;20443;-60
2022/02/21 10:45:15;;;;;;;3.93;3.63;;;9.40;73.20;;;;;;5055613;28;20397;-55
2022/02/21 10:48:01;;;;;;;2.70;2.50;;;9.90;68.90;;;;;;5068052;28;20424;-55
2022/02/21 10:50:29;;;;;;;3.50;3.30;;;10.30;63.00;;;;;;5056277;28;20962;-57
2022/02/21 10:52:54;;;;;;;3.10;3.00;;;10.10;62.40;;;;;;5054812;28;20511;-54
2022/02/21 10:55:20;;;;;;;3.27;3.07;;;10.00;62.60;;;;;;5057379;28;20437;-52
2022/02/21 10:57:47;;;;;;;2.77;2.67;;;9.90;63.70;;;;;;5066127;28;20503;-56
2022/02/21 11:00:14;;;;;;;3.10;2.90;;;9.50;64.00;;;;;;5054390;28;20189;-52
2022/02/21 11:02:41;;;;;;;2.60;2.50;;;8.80;63.60;;;;;;5055578;28;20744;-52
2022/02/21 11:05:11;;;;;;;2.70;2.50;;;8.60;65.90;;;;;;5055178;28;20433;-49
2022/02/21 11:07:38;;;;;;;3.93;3.53;;;8.50;66.80;;;;;;5057789;28;20538;-51
2022/02/21 11:10:05;;;;;;;2.90;2.70;;;8.50;67.50;;;;;;5060491;28;20785;-56
2022/02/21 11:12:35;;;;;;;2.90;2.60;;;8.80;67.90;;;;;;5058090;28;20424;-50
2022/02/21 11:15:02;;;;;;;2.90;2.60;;;8.80;66.60;;;;;;5055189;28;20412;-56
2022/02/21 11:17:29;;;;;;;3.30;3.07;;;9.20;67.70;;;;;;5061240;28;20438;-53
2022/02/21 11:19:55;;;;;;;3.07;2.93;;;10.30;66.40;;;;;;5051414;28;20437;-54
2022/02/21 11:22:21;;;;;;;2.80;2.60;;;11.20;59.80;;;;;;5058131;28;20423;-56
2022/02/21 11:24:57;;;;;;;2.90;2.70;;;11.70;57.00;;;;;;5062574;28;20268;-56
2022/02/21 11:27:41;;;;;;;3.00;2.80;;;10.80;56.90;;;;;;5052918;28;20460;-57
2022/02/21 11:30:15;;;;;;;2.80;2.60;;;10.10;59.00;;;;;;5055240;28;20526;-49
2022/02/21 11:33:00;;;;;;;3.37;3.13;;;9.40;61.60;;;;;;5052747;28;20413;-54
2022/02/21 11:35:26;;;;;;;4.47;3.30;;;9.20;64.30;;;;;;5052442;28;20419;-54
2022/02/21 11:37:52;;;;;;;3.20;3.00;;;9.20;65.20;;;;;;5051819;28;20425;-57
2022/02/21 11:40:17;;;;;;;2.90;2.80;;;9.20;66.00;;;;;;5051579;28;20998;-53
2022/02/21 11:42:44;;;;;;;2.93;2.73;;;9.80;65.70;;;;;;5051428;28;20261;-56
2022/02/21 11:45:29;;;;;;;3.40;3.10;;;10.70;60.60;;;;;;5051397;28;20213;-55
2022/02/21 11:47:59;;;;;;;3.00;2.90;;;10.90;59.90;;;;;;5051989;28;20459;-52
2022/02/21 11:50:30;;;;;;;3.17;3.03;;;11.00;57.40;;;;;;5051071;28;20471;-53
2022/02/21 11:53:20;;;;;;;3.27;3.07;;;10.60;56.80;;;;;;5048562;28;20476;-58
2022/02/21 11:55:47;;;;;;;3.27;3.07;;;10.80;57.50;;;;;;5048382;28;20420;-54
2022/02/21 11:58:15;;;;;;;3.40;3.20;;;11.60;54.80;;;;;;5056543;28;20424;-57
2022/02/21 12:00:45;;;;;;;3.10;2.90;;;11.80;52.40;;;;;;5047425;28;20436;-57
2022/02/21 12:03:12;;;;;;;3.50;3.20;;;11.40;51.10;;;;;;5050041;28;20413;-55
2022/02/21 12:05:38;;;;;;;3.50;3.30;;;11.40;52.10;;;;;;5048951;28;20468;-56
2022/02/21 12:08:31;;;;;;;3.23;2.93;;;11.20;51.80;;;;;;5052469;28;21173;-60
2022/02/21 12:11:15;;;;;;;3.20;2.90;;;10.60;52.50;;;;;;5049756;28;20412;-54
2022/02/21 12:13:50;;;;;;;3.73;3.13;;;10.50;51.90;;;;;;5050529;28;20921;-55
2022/02/21 12:16:20;;;;;;;3.70;3.50;;;10.10;52.30;;;;;;5051215;28;20419;-57
2022/02/21 12:18:57;;;;;;;3.40;3.10;;;10.40;52.10;;;;;;5058912;28;20930;-58
2022/02/21 12:21:26;;;;;;;5.03;3.37;;;10.40;51.40;;;;;;5054738;28;20451;-53
2022/02/21 12:24:00;;;;;;;3.60;3.30;;;10.90;52.10;;;;;;5050420;28;20528;-56
2022/02/21 12:26:30;;;;;;;3.10;3.00;;;11.40;50.10;;;;;;5063301;28;20451;-56
2022/02/21 12:29:17;;;;;;;3.87;3.57;;;11.90;48.70;;;;;;5055617;28;20475;-55
2022/02/21 12:32:01;;;;;;;3.50;3.23;;;12.40;47.10;;;;;;5056961;28;20436;-50
2022/02/21 12:34:32;;;;;;;3.73;3.53;;;12.20;47.00;;;;;;5050808;28;20440;-50
2022/02/21 12:37:01;;;;;;;3.90;3.60;;;12.00;47.40;;;;;;5060462;28;20782;-57
2022/02/21 12:39:30;;;;;;;3.20;2.90;;;11.20;48.00;;;;;;5060359;28;20447;-54
2022/02/21 12:41:56;;;;;;;3.40;3.20;;;11.30;48.60;;;;;;5067875;28;20424;-56
2022/02/21 12:44:21;;;;;;;3.50;3.30;;;11.50;49.40;;;;;;5049344;28;20459;-56
2022/02/21 12:46:54;;;;;;;3.37;3.07;;;12.20;47.80;;;;;;5050047;28;20653;-54
2022/02/21 12:49:25;;;;;;;3.30;3.10;;;12.40;46.70;;;;;;5048945;28;20209;-53
2022/02/21 12:52:06;;;;;;;3.00;2.80;;;12.20;47.40;;;;;;5052671;28;20432;-53
2022/02/21 12:54:36;;;;;;;3.10;2.90;;;12.40;47.20;;;;;;5042063;28;20433;-55